sensor_id;sensor_type;location;lat;lon;timestamp;pressure;altitude;pressure_sealevel;temperature;humidity
73692;BME280;61996;49.910;35.562;2022-09-12T00:02:18;98619.63;;;17.11;47.84
73692;BME280;61996;49.910;35.562;2022-09-12T00:05:21;98615.00;;;17.13;46.88
73692;BME280;61996;49.910;35.562;2022-09-12T00:08:24;98616.56;;;17.23;47.02
73692;BME280;61996;49.910;35.562;2022-09-12T00:11:28;98622.03;;;17.22;46.66
73692;BME280;61996;49.910;35.562;2022-09-12T00:14:31;98619.81;;;17.17;46.09
73692;BME280;61996;49.910;35.562;2022-09-12T00:17:34;98621.44;;;17.10;46.92
73692;BME280;61996;49.910;35.562;2022-09-12T00:20:39;98622.13;;;17.12;46.16
73692;BME280;61996;49.910;35.562;2022-09-12T00:23:42;98602.31;;;17.07;46.93
73692;BME280;61996;49.910;35.562;2022-09-12T00:26:46;98598.13;;;17.22;47.44
73692;BME280;61996;49.910;35.562;2022-09-12T00:29:49;98604.44;;;17.03;46.38
73692;BME280;61996;49.910;35.562;2022-09-12T00:32:52;98605.47;;;17.10;47.11
73692;BME280;61996;49.910;35.562;2022-09-12T00:35:55;98599.44;;;17.18;47.20
73692;BME280;61996;49.910;35.562;2022-09-12T00:38:58;98599.00;;;17.05;47.29
73692;BME280;61996;49.910;35.562;2022-09-12T00:42:02;98592.97;;;17.20;47.04
73692;BME280;61996;49.910;35.562;2022-09-12T00:45:05;98595.19;;;17.07;47.48
73692;BME280;61996;49.910;35.562;2022-09-12T00:48:13;98591.75;;;17.15;46.54
73692;BME280;61996;49.910;35.562;2022-09-12T00:51:18;98588.91;;;16.90;47.06
73692;BME280;61996;49.910;35.562;2022-09-12T00:54:22;98577.50;;;16.98;46.72
73692;BME280;61996;49.910;35.562;2022-09-12T00:57:28;98574.84;;;16.98;47.08
73692;BME280;61996;49.910;35.562;2022-09-12T01:00:33;98582.94;;;16.96;47.18
73692;BME280;61996;49.910;35.562;2022-09-12T01:03:36;98576.13;;;16.94;47.54
73692;BME280;61996;49.910;35.562;2022-09-12T01:06:39;98571.66;;;16.94;47.40
73692;BME280;61996;49.910;35.562;2022-09-12T01:09:43;98566.94;;;16.88;47.22
73692;BME280;61996;49.910;35.562;2022-09-12T01:12:47;98564.16;;;16.90;47.02
73692;BME280;61996;49.910;35.562;2022-09-12T01:15:50;98569.09;;;16.85;47.27
73692;BME280;61996;49.910;35.562;2022-09-12T01:18:58;98569.97;;;16.76;47.26
73692;BME280;61996;49.910;35.562;2022-09-12T01:22:10;98569.63;;;16.70;47.46
73692;BME280;61996;49.910;35.562;2022-09-12T01:25:21;98563.31;;;16.89;47.84
73692;BME280;61996;49.910;35.562;2022-09-12T01:28:44;98565.69;;;16.65;47.47
73692;BME280;61996;49.910;35.562;2022-09-12T01:31:54;98562.16;;;16.74;48.33
73692;BME280;61996;49.910;35.562;2022-09-12T01:35:03;98558.34;;;16.59;48.01
73692;BME280;61996;49.910;35.562;2022-09-12T01:38:09;98551.88;;;16.71;47.93
73692;BME280;61996;49.910;35.562;2022-09-12T01:41:17;98555.25;;;16.63;48.33
73692;BME280;61996;49.910;35.562;2022-09-12T01:44:29;98555.19;;;16.73;47.67
73692;BME280;61996;49.910;35.562;2022-09-12T01:47:40;98557.34;;;16.60;47.97
73692;BME280;61996;49.910;35.562;2022-09-12T01:50:44;98553.69;;;16.61;48.26
73692;BME280;61996;49.910;35.562;2022-09-12T01:53:49;98553.63;;;16.53;48.64
73692;BME280;61996;49.910;35.562;2022-09-12T01:56:54;98540.19;;;16.54;49.41
73692;BME280;61996;49.910;35.562;2022-09-12T01:59:58;98537.94;;;16.41;48.67
73692;BME280;61996;49.910;35.562;2022-09-12T02:03:06;98537.69;;;16.53;48.62
73692;BME280;61996;49.910;35.562;2022-09-12T02:06:11;98534.75;;;16.56;49.10
73692;BME280;61996;49.910;35.562;2022-09-12T02:09:17;98538.00;;;16.50;48.09
73692;BME280;61996;49.910;35.562;2022-09-12T02:12:23;98542.84;;;16.36;48.51
73692;BME280;61996;49.910;35.562;2022-09-12T02:15:28;98548.31;;;16.53;48.92
73692;BME280;61996;49.910;35.562;2022-09-12T02:18:33;98537.31;;;16.48;48.66
73692;BME280;61996;49.910;35.562;2022-09-12T02:21:39;98541.84;;;16.37;48.48
73692;BME280;61996;49.910;35.562;2022-09-12T02:24:45;98535.41;;;16.40;48.72
73692;BME280;61996;49.910;35.562;2022-09-12T02:27:50;98537.94;;;16.41;48.98
73692;BME280;61996;49.910;35.562;2022-09-12T02:30:55;98533.31;;;16.43;48.24
73692;BME280;61996;49.910;35.562;2022-09-12T02:34:07;98530.94;;;16.40;48.04
73692;BME280;61996;49.910;35.562;2022-09-12T02:37:11;98522.84;;;16.42;48.56
73692;BME280;61996;49.910;35.562;2022-09-12T02:40:17;98516.97;;;16.38;48.75
73692;BME280;61996;49.910;35.562;2022-09-12T02:43:20;98514.88;;;16.42;50.15
73692;BME280;61996;49.910;35.562;2022-09-12T02:46:24;98526.25;;;16.52;48.35
73692;BME280;61996;49.910;35.562;2022-09-12T02:49:30;98529.22;;;16.49;47.84
73692;BME280;61996;49.910;35.562;2022-09-12T02:52:33;98533.47;;;16.42;48.52
73692;BME280;61996;49.910;35.562;2022-09-12T02:55:36;98533.59;;;16.40;47.99
73692;BME280;61996;49.910;35.562;2022-09-12T02:58:40;98539.84;;;16.49;47.42
73692;BME280;61996;49.910;35.562;2022-09-12T03:01:59;98535.13;;;16.43;47.54
73692;BME280;61996;49.910;35.562;2022-09-12T03:05:23;98535.13;;;16.43;48.16
73692;BME280;61996;49.910;35.562;2022-09-12T03:11:49;98542.63;;;16.48;48.30
73692;BME280;61996;49.910;35.562;2022-09-12T03:14:59;98545.06;;;16.59;47.49
73692;BME280;61996;49.910;35.562;2022-09-12T03:18:05;98539.59;;;16.60;48.51
73692;BME280;61996;49.910;35.562;2022-09-12T03:21:15;98534.34;;;16.68;49.25
73692;BME280;61996;49.910;35.562;2022-09-12T03:24:20;98529.34;;;16.48;48.51
73692;BME280;61996;49.910;35.562;2022-09-12T03:27:26;98530.03;;;16.67;48.12
73692;BME280;61996;49.910;35.562;2022-09-12T03:30:35;98522.91;;;16.50;48.56
73692;BME280;61996;49.910;35.562;2022-09-12T03:33:39;98528.91;;;16.52;48.26
73692;BME280;61996;49.910;35.562;2022-09-12T03:36:43;98522.56;;;16.63;48.61
73692;BME280;61996;49.910;35.562;2022-09-12T03:39:45;98525.34;;;16.61;48.36
73692;BME280;61996;49.910;35.562;2022-09-12T03:42:48;98527.03;;;16.62;47.57
73692;BME280;61996;49.910;35.562;2022-09-12T03:45:51;98521.66;;;16.72;49.11
73692;BME280;61996;49.910;35.562;2022-09-12T03:48:54;98517.03;;;16.74;49.26
73692;BME280;61996;49.910;35.562;2022-09-12T03:51:58;98520.19;;;16.60;48.47
73692;BME280;61996;49.910;35.562;2022-09-12T03:55:01;98517.91;;;16.65;47.67
73692;BME280;61996;49.910;35.562;2022-09-12T03:58:03;98530.53;;;16.63;47.34
73692;BME280;61996;49.910;35.562;2022-09-12T04:01:07;98530.66;;;16.61;47.70
73692;BME280;61996;49.910;35.562;2022-09-12T04:04:12;98529.53;;;16.64;47.50
73692;BME280;61996;49.910;35.562;2022-09-12T04:07:16;98524.22;;;16.64;47.44
73692;BME280;61996;49.910;35.562;2022-09-12T04:10:19;98527.81;;;16.73;47.84
73692;BME280;61996;49.910;35.562;2022-09-12T04:13:22;98525.22;;;16.63;47.45
73692;BME280;61996;49.910;35.562;2022-09-12T04:16:25;98530.19;;;16.66;47.25
73692;BME280;61996;49.910;35.562;2022-09-12T04:19:28;98521.22;;;16.77;47.83
73692;BME280;61996;49.910;35.562;2022-09-12T04:22:32;98530.19;;;16.66;47.09
73692;BME280;61996;49.910;35.562;2022-09-12T04:25:35;98533.00;;;16.64;47.19
73692;BME280;61996;49.910;35.562;2022-09-12T04:28:38;98526.00;;;16.73;48.41
73692;BME280;61996;49.910;35.562;2022-09-12T04:31:41;98523.22;;;16.65;47.57
73692;BME280;61996;49.910;35.562;2022-09-12T04:34:43;98531.00;;;16.76;48.07
73692;BME280;61996;49.910;35.562;2022-09-12T04:37:48;98535.91;;;16.89;48.14
73692;BME280;61996;49.910;35.562;2022-09-12T04:40:51;98533.72;;;16.84;48.56
73692;BME280;61996;49.910;35.562;2022-09-12T04:43:54;98529.84;;;16.79;48.37
73692;BME280;61996;49.910;35.562;2022-09-12T04:46:58;98523.56;;;16.80;48.01
73692;BME280;61996;49.910;35.562;2022-09-12T04:50:01;98521.13;;;16.86;47.72
73692;BME280;61996;49.910;35.562;2022-09-12T04:53:05;98523.47;;;16.89;47.70
73692;BME280;61996;49.910;35.562;2022-09-12T04:56:09;98525.91;;;16.83;47.46
73692;BME280;61996;49.910;35.562;2022-09-12T04:59:12;98528.63;;;16.73;48.35
73692;BME280;61996;49.910;35.562;2022-09-12T05:02:16;98528.66;;;16.91;48.00
73692;BME280;61996;49.910;35.562;2022-09-12T05:05:19;98519.84;;;16.90;47.53
73692;BME280;61996;49.910;35.562;2022-09-12T05:08:26;98520.06;;;16.97;47.91
73692;BME280;61996;49.910;35.562;2022-09-12T05:11:29;98522.28;;;16.84;47.20
73692;BME280;61996;49.910;35.562;2022-09-12T05:14:52;98525.22;;;16.81;47.20
73692;BME280;61996;49.910;35.562;2022-09-12T05:17:55;98517.94;;;17.01;47.93
73692;BME280;61996;49.910;35.562;2022-09-12T05:20:58;98512.44;;;17.02;47.49
73692;BME280;61996;49.910;35.562;2022-09-12T05:24:03;98510.00;;;17.09;47.81
73692;BME280;61996;49.910;35.562;2022-09-12T05:27:07;98509.50;;;17.05;47.18
73692;BME280;61996;49.910;35.562;2022-09-12T05:30:10;98491.38;;;17.01;46.54
73692;BME280;61996;49.910;35.562;2022-09-12T05:33:13;98492.63;;;17.14;47.82
73692;BME280;61996;49.910;35.562;2022-09-12T05:36:17;98485.66;;;17.13;45.96
73692;BME280;61996;49.910;35.562;2022-09-12T05:39:21;98491.38;;;17.01;46.91
73692;BME280;61996;49.910;35.562;2022-09-12T05:42:24;98498.09;;;17.13;46.37
73692;BME280;61996;49.910;35.562;2022-09-12T05:45:28;98500.03;;;17.29;46.01
73692;BME280;61996;49.910;35.562;2022-09-12T05:48:31;98491.47;;;17.17;46.14
73692;BME280;61996;49.910;35.562;2022-09-12T05:51:35;98503.63;;;17.19;46.83
73692;BME280;61996;49.910;35.562;2022-09-12T05:54:41;98505.09;;;16.96;47.82
73692;BME280;61996;49.910;35.562;2022-09-12T05:57:43;98493.97;;;16.92;47.78
73692;BME280;61996;49.910;35.562;2022-09-12T06:00:47;98488.41;;;17.30;46.59
73692;BME280;61996;49.910;35.562;2022-09-12T06:03:50;98493.63;;;17.39;47.20
73692;BME280;61996;49.910;35.562;2022-09-12T06:06:53;98490.41;;;17.53;47.84
73692;BME280;61996;49.910;35.562;2022-09-12T06:09:58;98489.50;;;17.71;48.06
73692;BME280;61996;49.910;35.562;2022-09-12T06:13:00;98482.94;;;17.31;49.30
73692;BME280;61996;49.910;35.562;2022-09-12T06:16:05;98489.19;;;17.74;49.79
73692;BME280;61996;49.910;35.562;2022-09-12T06:19:12;98488.50;;;17.72;48.33
73692;BME280;61996;49.910;35.562;2022-09-12T06:22:15;98494.72;;;17.80;48.05
73692;BME280;61996;49.910;35.562;2022-09-12T06:25:19;98499.31;;;18.13;47.91
73692;BME280;61996;49.910;35.562;2022-09-12T06:28:22;98502.78;;;18.05;47.38
73692;BME280;61996;49.910;35.562;2022-09-12T06:31:26;98503.13;;;18.10;47.33
73692;BME280;61996;49.910;35.562;2022-09-12T06:34:30;98501.13;;;18.04;48.16
73692;BME280;61996;49.910;35.562;2022-09-12T06:37:35;98499.66;;;18.18;47.90
73692;BME280;61996;49.910;35.562;2022-09-12T06:40:41;98493.00;;;18.14;47.46
73692;BME280;61996;49.910;35.562;2022-09-12T06:43:45;98490.53;;;18.28;47.25
73692;BME280;61996;49.910;35.562;2022-09-12T06:46:48;98495.19;;;18.26;46.30
73692;BME280;61996;49.910;35.562;2022-09-12T06:49:51;98499.00;;;18.16;46.62
73692;BME280;61996;49.910;35.562;2022-09-12T06:52:53;98496.13;;;18.84;47.27
73692;BME280;61996;49.910;35.562;2022-09-12T06:55:58;98501.97;;;18.71;45.57
73692;BME280;61996;49.910;35.562;2022-09-12T06:59:01;98513.38;;;18.63;46.67
73692;BME280;61996;49.910;35.562;2022-09-12T07:02:03;98527.25;;;18.67;46.38
73692;BME280;61996;49.910;35.562;2022-09-12T07:05:06;98514.78;;;18.76;45.36
73692;BME280;61996;49.910;35.562;2022-09-12T07:08:22;98513.94;;;18.67;45.46
73692;BME280;61996;49.910;35.562;2022-09-12T07:11:27;98516.06;;;18.63;45.21
73692;BME280;61996;49.910;35.562;2022-09-12T07:14:32;98512.25;;;18.58;45.50
73692;BME280;61996;49.910;35.562;2022-09-12T07:17:34;98515.59;;;18.84;46.18
73692;BME280;61996;49.910;35.562;2022-09-12T07:20:37;98512.97;;;18.93;45.74
73692;BME280;61996;49.910;35.562;2022-09-12T07:23:40;98515.59;;;18.76;45.04
73692;BME280;61996;49.910;35.562;2022-09-12T07:26:44;98521.91;;;18.59;46.21
73692;BME280;61996;49.910;35.562;2022-09-12T07:29:47;98526.88;;;18.62;45.93
73692;BME280;61996;49.910;35.562;2022-09-12T07:32:52;98519.44;;;18.98;46.31
73692;BME280;61996;49.910;35.562;2022-09-12T07:35:59;98521.44;;;18.88;46.13
73692;BME280;61996;49.910;35.562;2022-09-12T07:39:02;98519.13;;;18.93;45.69
73692;BME280;61996;49.910;35.562;2022-09-12T07:42:06;98514.81;;;19.00;45.53
73692;BME280;61996;49.910;35.562;2022-09-12T07:45:09;98509.78;;;18.89;46.13
73692;BME280;61996;49.910;35.562;2022-09-12T07:48:13;98512.16;;;18.92;46.22
73692;BME280;61996;49.910;35.562;2022-09-12T07:51:16;98500.31;;;18.86;45.70
73692;BME280;61996;49.910;35.562;2022-09-12T07:54:22;98503.81;;;18.95;46.91
73692;BME280;61996;49.910;35.562;2022-09-12T07:57:26;98496.13;;;18.76;45.92
73692;BME280;61996;49.910;35.562;2022-09-12T08:00:29;98511.94;;;18.77;46.09
73692;BME280;61996;49.910;35.562;2022-09-12T08:03:36;98498.63;;;18.77;44.64
73692;BME280;61996;49.910;35.562;2022-09-12T08:06:39;98496.16;;;18.92;45.79
73692;BME280;61996;49.910;35.562;2022-09-12T08:09:44;98493.50;;;18.92;44.69
73692;BME280;61996;49.910;35.562;2022-09-12T08:12:51;98487.84;;;18.71;45.02
73692;BME280;61996;49.910;35.562;2022-09-12T08:15:56;98486.81;;;18.88;44.61
73692;BME280;61996;49.910;35.562;2022-09-12T08:19:00;98501.81;;;18.73;45.75
73692;BME280;61996;49.910;35.562;2022-09-12T08:22:03;98481.97;;;18.83;45.24
73692;BME280;61996;49.910;35.562;2022-09-12T08:25:06;98489.50;;;18.80;45.83
73692;BME280;61996;49.910;35.562;2022-09-12T08:28:10;98484.00;;;18.81;45.81
73692;BME280;61996;49.910;35.562;2022-09-12T08:31:14;98481.84;;;18.93;45.52
73692;BME280;61996;49.910;35.562;2022-09-12T08:34:17;98480.84;;;18.86;44.76
73692;BME280;61996;49.910;35.562;2022-09-12T08:37:21;98473.00;;;18.84;44.63
73692;BME280;61996;49.910;35.562;2022-09-12T08:40:24;98495.47;;;18.82;45.61
73692;BME280;61996;49.910;35.562;2022-09-12T08:43:31;98488.50;;;18.81;44.57
73692;BME280;61996;49.910;35.562;2022-09-12T08:46:41;98490.50;;;18.79;45.41
73692;BME280;61996;49.910;35.562;2022-09-12T08:49:47;98485.50;;;18.92;45.82
73692;BME280;61996;49.910;35.562;2022-09-12T08:52:54;98479.47;;;18.98;45.57
73692;BME280;61996;49.910;35.562;2022-09-12T08:55:59;98482.50;;;18.87;45.09
73692;BME280;61996;49.910;35.562;2022-09-12T08:59:03;98489.47;;;18.96;46.50
73692;BME280;61996;49.910;35.562;2022-09-12T09:02:11;98481.16;;;19.15;45.71
73692;BME280;61996;49.910;35.562;2022-09-12T09:05:20;98489.50;;;19.12;44.84
73692;BME280;61996;49.910;35.562;2022-09-12T09:11:46;98512.28;;;19.15;44.78
73692;BME280;61996;49.910;35.562;2022-09-12T09:15:05;98502.47;;;19.15;44.60
73692;BME280;61996;49.910;35.562;2022-09-12T09:18:14;98496.47;;;19.13;44.67
73692;BME280;61996;49.910;35.562;2022-09-12T09:21:21;98507.13;;;19.22;45.02
73692;BME280;61996;49.910;35.562;2022-09-12T09:24:26;98511.47;;;19.14;44.53
73692;BME280;61996;49.910;35.562;2022-09-12T09:27:30;98493.81;;;19.13;44.74
73692;BME280;61996;49.910;35.562;2022-09-12T09:30:43;98500.63;;;19.40;44.35
73692;BME280;61996;49.910;35.562;2022-09-12T09:33:46;98502.13;;;19.35;44.68
73692;BME280;61996;49.910;35.562;2022-09-12T09:36:51;98507.44;;;19.35;44.14
73692;BME280;61996;49.910;35.562;2022-09-12T09:40:00;98498.44;;;19.36;44.48
73692;BME280;61996;49.910;35.562;2022-09-12T09:43:09;98502.75;;;19.61;44.67
73692;BME280;61996;49.910;35.562;2022-09-12T09:46:17;98495.75;;;19.60;45.27
73692;BME280;61996;49.910;35.562;2022-09-12T09:49:20;98497.53;;;19.76;45.87
73692;BME280;61996;49.910;35.562;2022-09-12T09:52:25;98491.03;;;19.79;46.32
73692;BME280;61996;49.910;35.562;2022-09-12T09:55:31;98497.28;;;19.94;46.51
73692;BME280;61996;49.910;35.562;2022-09-12T09:58:37;98505.00;;;19.89;47.47
73692;BME280;61996;49.910;35.562;2022-09-12T10:01:46;98499.28;;;20.00;47.42
73692;BME280;61996;49.910;35.562;2022-09-12T10:04:51;98498.94;;;20.03;47.07
73692;BME280;61996;49.910;35.562;2022-09-12T10:07:55;98487.53;;;20.09;47.06
73692;BME280;61996;49.910;35.562;2022-09-12T10:10:59;98483.91;;;20.10;45.96
73692;BME280;61996;49.910;35.562;2022-09-12T10:14:03;98494.72;;;20.17;46.49
73692;BME280;61996;49.910;35.562;2022-09-12T10:17:25;98497.19;;;20.18;46.92
73692;BME280;61996;49.910;35.562;2022-09-12T10:20:36;98498.84;;;20.19;46.40
73692;BME280;61996;49.910;35.562;2022-09-12T10:23:40;98507.31;;;20.23;47.01
73692;BME280;61996;49.910;35.562;2022-09-12T10:26:44;98505.19;;;20.18;47.41
73692;BME280;61996;49.910;35.562;2022-09-12T10:29:48;98503.69;;;20.24;46.58
73692;BME280;61996;49.910;35.562;2022-09-12T10:37:00;98504.50;;;20.24;46.10
73692;BME280;61996;49.910;35.562;2022-09-12T10:40:05;98501.84;;;20.24;45.43
73692;BME280;61996;49.910;35.562;2022-09-12T10:43:15;98502.94;;;20.30;45.40
73692;BME280;61996;49.910;35.562;2022-09-12T10:46:27;98491.94;;;20.33;45.15
73692;BME280;61996;49.910;35.562;2022-09-12T10:49:30;98490.94;;;20.34;45.38
73692;BME280;61996;49.910;35.562;2022-09-12T10:52:40;98486.41;;;20.35;45.12
73692;BME280;61996;49.910;35.562;2022-09-12T10:55:50;98490.03;;;20.42;45.30
73692;BME280;61996;49.910;35.562;2022-09-12T10:59:06;98492.72;;;20.42;44.80
73692;BME280;61996;49.910;35.562;2022-09-12T11:02:13;98494.56;;;20.41;44.65
73692;BME280;61996;49.910;35.562;2022-09-12T11:05:19;98493.72;;;20.41;44.93
73692;BME280;61996;49.910;35.562;2022-09-12T11:11:55;98494.22;;;20.44;44.85
73692;BME280;61996;49.910;35.562;2022-09-12T11:15:07;98477.88;;;20.47;44.78
73692;BME280;61996;49.910;35.562;2022-09-12T11:18:14;98478.69;;;20.48;44.64
73692;BME280;61996;49.910;35.562;2022-09-12T11:21:24;98474.00;;;20.50;44.60
73692;BME280;61996;49.910;35.562;2022-09-12T11:24:34;98477.50;;;20.50;44.53
73692;BME280;61996;49.910;35.562;2022-09-12T11:31:12;98477.34;;;20.52;44.44
73692;BME280;61996;49.910;35.562;2022-09-12T11:34:20;98486.47;;;20.58;44.31
73692;BME280;61996;49.910;35.562;2022-09-12T11:40:55;98485.03;;;20.70;44.03
73692;BME280;61996;49.910;35.562;2022-09-12T11:44:01;98489.88;;;20.74;43.78
73692;BME280;61996;49.910;35.562;2022-09-12T11:47:12;98482.16;;;20.79;43.90
73692;BME280;61996;49.910;35.562;2022-09-12T11:50:18;98483.97;;;20.79;43.66
73692;BME280;61996;49.910;35.562;2022-09-12T11:53:22;98489.25;;;20.87;43.41
73692;BME280;61996;49.910;35.562;2022-09-12T11:56:27;98488.91;;;20.90;43.67
73692;BME280;61996;49.910;35.562;2022-09-12T11:59:32;98482.13;;;21.02;43.43
73692;BME280;61996;49.910;35.562;2022-09-12T12:02:38;98487.75;;;21.07;43.81
73692;BME280;61996;49.910;35.562;2022-09-12T12:05:43;98489.41;;;21.08;43.89
73692;BME280;61996;49.910;35.562;2022-09-12T12:08:52;98490.47;;;21.22;43.60
73692;BME280;61996;49.910;35.562;2022-09-12T12:11:55;98485.75;;;21.24;43.58
73692;BME280;61996;49.910;35.562;2022-09-12T12:15:00;98497.06;;;21.12;43.76
73692;BME280;61996;49.910;35.562;2022-09-12T12:18:06;98493.75;;;21.10;43.74
73692;BME280;61996;49.910;35.562;2022-09-12T12:21:17;98489.16;;;21.18;43.34
73692;BME280;61996;49.910;35.562;2022-09-12T12:24:21;98486.47;;;21.18;43.03
73692;BME280;61996;49.910;35.562;2022-09-12T12:34:21;98498.38;;;21.16;43.05
73692;BME280;61996;49.910;35.562;2022-09-12T12:37:47;98493.38;;;21.36;42.83
73692;BME280;61996;49.910;35.562;2022-09-12T12:40:51;98483.03;;;21.32;43.17
73692;BME280;61996;49.910;35.562;2022-09-12T12:43:54;98476.56;;;21.42;43.00
73692;BME280;61996;49.910;35.562;2022-09-12T12:47:07;98477.53;;;21.49;42.98
73692;BME280;61996;49.910;35.562;2022-09-12T12:50:21;98479.34;;;21.48;42.68
73692;BME280;61996;49.910;35.562;2022-09-12T12:53:26;98468.09;;;21.53;42.63
73692;BME280;61996;49.910;35.562;2022-09-12T12:56:38;98477.78;;;21.69;42.54
73692;BME280;61996;49.910;35.562;2022-09-12T12:59:44;98471.44;;;21.70;42.74
73692;BME280;61996;49.910;35.562;2022-09-12T13:02:49;98474.56;;;21.73;42.68
73692;BME280;61996;49.910;35.562;2022-09-12T13:05:57;98472.81;;;21.80;42.60
73692;BME280;61996;49.910;35.562;2022-09-12T13:09:03;98480.75;;;21.74;42.54
73692;BME280;61996;49.910;35.562;2022-09-12T13:12:06;98469.59;;;21.70;42.78
73692;BME280;61996;49.910;35.562;2022-09-12T13:18:29;98465.31;;;21.76;43.00
73692;BME280;61996;49.910;35.562;2022-09-12T13:21:35;98458.91;;;21.70;42.92
73692;BME280;61996;49.910;35.562;2022-09-12T13:24:41;98445.88;;;21.67;42.95
73692;BME280;61996;49.910;35.562;2022-09-12T13:27:55;98452.44;;;21.65;42.59
73692;BME280;61996;49.910;35.562;2022-09-12T13:30:58;98450.19;;;21.68;42.48
73692;BME280;61996;49.910;35.562;2022-09-12T13:34:04;98446.25;;;21.79;42.28
73692;BME280;61996;49.910;35.562;2022-09-12T13:37:21;98440.59;;;21.88;42.55
73692;BME280;61996;49.910;35.562;2022-09-12T13:40:29;98433.03;;;21.92;42.16
73692;BME280;61996;49.910;35.562;2022-09-12T13:43:35;98437.78;;;21.97;42.07
73692;BME280;61996;49.910;35.562;2022-09-12T13:46:40;98443.81;;;21.99;41.91
73692;BME280;61996;49.910;35.562;2022-09-12T13:49:44;98441.38;;;22.04;41.62
73692;BME280;61996;49.910;35.562;2022-09-12T13:52:49;98448.16;;;22.00;41.74
73692;BME280;61996;49.910;35.562;2022-09-12T13:55:54;98442.16;;;21.98;41.91
73692;BME280;61996;49.910;35.562;2022-09-12T13:58:59;98440.47;;;21.97;41.94
73692;BME280;61996;49.910;35.562;2022-09-12T14:02:14;98442.31;;;21.96;42.05
73692;BME280;61996;49.910;35.562;2022-09-12T14:05:19;98449.09;;;21.92;41.98
73692;BME280;61996;49.910;35.562;2022-09-12T14:08:23;98450.47;;;21.88;42.19
73692;BME280;61996;49.910;35.562;2022-09-12T14:11:27;98458.28;;;21.89;42.17
73692;BME280;61996;49.910;35.562;2022-09-12T14:14:31;98461.09;;;21.81;42.34
73692;BME280;61996;49.910;35.562;2022-09-12T14:17:37;98458.97;;;21.77;42.16
73692;BME280;61996;49.910;35.562;2022-09-12T14:20:41;98462.41;;;21.71;42.20
73692;BME280;61996;49.910;35.562;2022-09-12T14:23:47;98451.13;;;21.75;42.21
73692;BME280;61996;49.910;35.562;2022-09-12T14:26:51;98449.94;;;21.78;42.56
73692;BME280;61996;49.910;35.562;2022-09-12T14:29:59;98448.63;;;21.74;42.66
73692;BME280;61996;49.910;35.562;2022-09-12T14:33:04;98443.91;;;21.76;42.82
73692;BME280;61996;49.910;35.562;2022-09-12T14:36:09;98448.34;;;21.83;43.33
73692;BME280;61996;49.910;35.562;2022-09-12T14:39:19;98449.28;;;21.91;44.28
73692;BME280;61996;49.910;35.562;2022-09-12T14:42:25;98448.34;;;21.83;44.25
73692;BME280;61996;49.910;35.562;2022-09-12T14:45:29;98447.41;;;21.76;44.69
73692;BME280;61996;49.910;35.562;2022-09-12T14:48:34;98446.59;;;21.76;46.03
73692;BME280;61996;49.910;35.562;2022-09-12T14:51:38;98445.41;;;21.78;45.25
73692;BME280;61996;49.910;35.562;2022-09-12T14:54:42;98444.84;;;21.68;44.93
73692;BME280;61996;49.910;35.562;2022-09-12T14:57:46;98440.53;;;21.52;45.70
73692;BME280;61996;49.910;35.562;2022-09-12T15:00:51;98443.75;;;21.48;45.24
73692;BME280;61996;49.910;35.562;2022-09-12T15:03:54;98434.72;;;21.49;46.84
73692;BME280;61996;49.910;35.562;2022-09-12T15:06:58;98430.94;;;21.43;47.28
73692;BME280;61996;49.910;35.562;2022-09-12T15:10:03;98422.72;;;21.45;47.01
73692;BME280;61996;49.910;35.562;2022-09-12T15:13:11;98422.72;;;21.30;47.27
73692;BME280;61996;49.910;35.562;2022-09-12T15:16:15;98419.94;;;21.23;47.59
73692;BME280;61996;49.910;35.562;2022-09-12T15:19:18;98433.22;;;21.31;47.15
73692;BME280;61996;49.910;35.562;2022-09-12T15:22:21;98441.53;;;21.37;46.87
73692;BME280;61996;49.910;35.562;2022-09-12T15:25:27;98440.00;;;21.19;48.00
73692;BME280;61996;49.910;35.562;2022-09-12T15:28:30;98445.25;;;21.13;48.30
73692;BME280;61996;49.910;35.562;2022-09-12T15:31:34;98455.31;;;21.11;48.71
73692;BME280;61996;49.910;35.562;2022-09-12T15:34:37;98450.25;;;21.16;48.24
73692;BME280;61996;49.910;35.562;2022-09-12T15:37:40;98455.41;;;21.17;48.29
73692;BME280;61996;49.910;35.562;2022-09-12T15:40:44;98450.56;;;20.98;49.13
73692;BME280;61996;49.910;35.562;2022-09-12T15:43:53;98445.13;;;20.91;49.15
73692;BME280;61996;49.910;35.562;2022-09-12T15:46:57;98445.94;;;20.92;48.05
73692;BME280;61996;49.910;35.562;2022-09-12T16:02:33;98458.81;;;20.42;50.09
73692;BME280;61996;49.910;35.562;2022-09-12T16:05:36;98457.16;;;20.41;49.72
73692;BME280;61996;49.910;35.562;2022-09-12T16:08:39;98459.53;;;20.36;49.89
73692;BME280;61996;49.910;35.562;2022-09-12T16:11:42;98465.44;;;20.23;50.30
73692;BME280;61996;49.910;35.562;2022-09-12T16:14:45;98467.66;;;20.20;50.57
73692;BME280;61996;49.910;35.562;2022-09-12T16:17:49;98465.22;;;20.10;50.95
73692;BME280;61996;49.910;35.562;2022-09-12T16:20:52;98465.94;;;19.96;51.19
73692;BME280;61996;49.910;35.562;2022-09-12T16:23:55;98467.56;;;20.05;50.87
73692;BME280;61996;49.910;35.562;2022-09-12T16:26:57;98460.56;;;20.04;50.98
73692;BME280;61996;49.910;35.562;2022-09-12T16:30:02;98467.63;;;19.97;50.98
73692;BME280;61996;49.910;35.562;2022-09-12T16:33:08;98470.69;;;19.78;51.91
73692;BME280;61996;49.910;35.562;2022-09-12T16:36:12;98474.88;;;19.72;52.45
73692;BME280;61996;49.910;35.562;2022-09-12T16:39:19;98479.69;;;19.77;52.17
73692;BME280;61996;49.910;35.562;2022-09-12T16:42:22;98480.00;;;19.82;52.73
73692;BME280;61996;49.910;35.562;2022-09-12T16:45:24;98478.72;;;19.69;52.98
73692;BME280;61996;49.910;35.562;2022-09-12T16:48:28;98487.22;;;19.65;53.07
73692;BME280;61996;49.910;35.562;2022-09-12T16:51:32;98485.06;;;19.60;53.07
73692;BME280;61996;49.910;35.562;2022-09-12T16:54:36;98479.72;;;19.52;53.24